• Join FlightAware (Why Join?)
  • Login
  • US Flag 
05:36AM EDT


 

Airport Tracker/Info


-or-


 

Live Flight TrackerFlight Track Log ✈ SKW4764 ✈ 03-Sep-2013 ✈ KSLC - KMSO

Flight Track Log - Related Links

Times and Time Zones

All times are in EDT time to prevent confusion due to time zone crossing. See the SKW4764 flight status page for this flight to view local times or setup timezone preferences in your user account.

Time Position Orientation Groundspeed Altitude Reporting Facility
EDT Latitude Longitude Course Direction KTS MPH feet Rate Location/Type
05:35PM 40.8242 -111.9819 13° North 186 214 5,500  Level Salt Lake Center
05:36PM 40.8814 -111.9878 356° North 211 243 7,500 1,680 Climbing Salt Lake Center
05:37PM 40.9461 -111.9961 354° North 243 280 8,800 1,620 Climbing Salt Lake Center
05:38PM 41.2205 -111.8167 North  Level FlightAware Approximate
05:38PM 41.0247 -112.0042 356° North 280 322 10,700  Level Salt Lake Center
05:39PM 41.3276 -111.7391 37° Northeast  Level FlightAware Approximate
05:39PM 41.0969 -111.9589 25° Northeast 295 339 12,500  Level Salt Lake Center
05:40PM 41.4406 -111.6778 13° North  Level FlightAware Approximate
05:40PM 41.1736 -111.8925 33° Northeast 324 373 14,000  Level Salt Lake Center
05:41PM 41.2528 -111.8247 33° Northeast 335 386 15,500 1,380 Climbing Salt Lake Center
05:42PM 41.3428 -111.7864 18° North 355 409 16,900 1,200 Climbing Salt Lake Center
05:43PM 41.4442 -111.7950 356° North 365 420 18,000 1,200 Climbing Salt Lake Center
05:44PM 41.5461 -111.7978 359° North 368 423 19,500 960 Climbing Salt Lake Center
05:45PM 41.6472 -111.7983 360° North 366 421 20,000 660 Climbing Salt Lake Center
05:46PM 41.7703 -111.8261 350° North 376 433 20,900 840 Climbing Salt Lake Center
05:47PM 41.8689 -111.8675 343° North 372 428 21,800 900 Climbing Salt Lake Center
05:48PM 41.9717 -111.9092 343° North 383 441 22,800 780 Climbing Salt Lake Center
05:49PM 42.0744 -111.9503 343° North 384 442 23,500 720 Climbing Salt Lake Center
05:50PM 42.1783 -111.9928 343° North 389 448 24,400 720 Climbing Salt Lake Center
05:51PM 42.2819 -112.0344 343° North 389 448 25,100 660 Climbing Salt Lake Center
05:52PM 42.4078 -112.0853 343° North 394 453 25,800 660 Climbing Salt Lake Center
05:53PM 42.5150 -112.1292 343° North 401 461 26,500 480 Climbing Salt Lake Center
05:54PM 42.6222 -112.1731 343° North 402 463 26,900 480 Climbing Salt Lake Center
05:55PM 42.7325 -112.1636 North 420 483 27,500 660 Climbing Salt Lake Center
05:56PM 42.8589 -112.1203 14° North 422 486 28,300 540 Climbing Salt Lake Center
05:58PM 42.9709 -112.1785 339° North  Level FlightAware Approximate
05:58PM 43.0975 -112.0400 339° North 427 491 29,300  Level Salt Lake Center
05:59PM 43.2097 -112.0394 360° North 421 484 29,800 480 Climbing Salt Lake Center
06:01PM 43.3333 -112.1061 339° North 426 490 30,300 480 Climbing Salt Lake Center
06:02PM 43.4403 -112.1592 340° North 424 488 30,800 480 Climbing Salt Lake Center
06:03PM 43.5461 -112.2167 339° North 425 489 31,300 480 Climbing Salt Lake Center
06:04PM 43.6711 -112.2794 340° North 427 491 31,900 300 Climbing Salt Lake Center
06:05PM 43.7783 -112.3356 339° North 428 493 32,000  Climbing Salt Lake Center
06:06PM 43.9061 -112.4031 339° North 435 501 32,000  Level Salt Lake Center
06:07PM 44.0206 -112.4625 340° North 450 518 32,000  Level Salt Lake Center
06:08PM 44.1358 -112.5253 339° North 459 528 32,000  Level Salt Lake Center
06:09PM 44.2694 -112.5969 339° North 459 528 32,000  Level Salt Lake Center
06:10PM 44.3864 -112.6597 339° North 463 533 32,000  Level Salt Lake Center
06:11PM 44.5206 -112.7306 339° North 463 533 32,000  Level Salt Lake Center
06:12PM 44.6336 -112.7928 339° North 460 529 32,000  Level Salt Lake Center
06:13PM 44.7453 -112.8550 338° Northwest 455 524 32,000  Level Salt Lake Center
06:14PM 44.8683 -112.9414 334° Northwest 445 512 32,000  Level Salt Lake Center
06:15PM 44.9822 -112.9936 342° North 445 512 32,000  Level Salt Lake Center
06:16PM 45.1164 -113.0606 341° North 452 520 32,000  Level Salt Lake Center
06:17PM 45.2292 -113.1211 339° North 452 520 32,000  Level Salt Lake Center
06:18PM 45.3419 -113.1850 338° Northwest 453 521 32,000  Level Salt Lake Center
06:19PM 45.4764 -113.2564 340° North 459 528 32,000  Level Salt Lake Center
06:20PM 45.5911 -113.3211 338° Northwest 461 531 32,000 -780 Level Salt Lake Center
06:21PM 45.7236 -113.3967 338° Northwest 460 529 30,500 -2,280 Descending Salt Lake Center
06:22PM 45.8394 -113.4619 339° North 465 535 27,400 -3,120 Descending Salt Lake Center
06:23PM 45.9575 -113.5275 339° North 462 532 24,200 -3,000 Descending Salt Lake Center
06:24PM 46.0700 -113.5947 337° Northwest 440 506 21,300 -3,000 Descending Salt Lake Center
06:25PM 46.1906 -113.6653 338° Northwest 421 484 18,100 -2,940 Descending Salt Lake Center
06:26PM 46.3014 -113.7283 339° North 401 461 15,300 -1,560 Descending Salt Lake Center
06:27PM 46.3919 -113.7842 337° Northwest 353 406 15,000 -720 Descending Salt Lake Center
06:28PM 46.4778 -113.8325 339° North 334 384 13,900 -1,500 Descending Salt Lake Center
06:29PM 46.5672 -113.8844 338° Northwest 324 373 12,000 -1,860 Descending Salt Lake Center
06:30PM 46.6461 -113.9306 338° Northwest 309 356 10,200 -1,500 Descending Salt Lake Center
06:31PM 46.7208 -113.9747 338° Northwest 294 338 9,000 -1,020 Descending Salt Lake Center
06:32PM 46.7894 -114.0033 344° North 245 282 8,200 -1,620 Descending Salt Lake Center
06:33PM 46.8489 -114.0022 North 217 250 5,800 -1,980 Descending Salt Lake Center
06:34PM 46.8867 -114.0400 326° Northwest 167 192 4,200 -1,260 Descending Salt Lake Center
06:35PM 46.9125 -114.0858 310° West 150 173 3,300 -900 Descending Salt Lake Center